createdAt,value
2017-05-06T00:02:08.966Z,101356
2017-05-06T00:04:39.241Z,101356
2017-05-06T00:07:08.988Z,101345
2017-05-06T00:09:37.942Z,101337
2017-05-06T00:12:06.937Z,101339
2017-05-06T00:14:35.998Z,101336
2017-05-06T00:17:05.385Z,101333
2017-05-06T00:19:34.404Z,101330
2017-05-06T00:22:03.409Z,101336
2017-05-06T00:24:32.403Z,101332
2017-05-06T00:27:01.375Z,101327
2017-05-06T00:29:30.734Z,101323
2017-05-06T00:32:00.461Z,101326
2017-05-06T00:34:29.454Z,101317
2017-05-06T00:36:58.437Z,101317
2017-05-06T00:39:28.137Z,101320
2017-05-06T00:41:58.427Z,101313
2017-05-06T00:44:27.435Z,101320
2017-05-06T00:46:56.449Z,101323
2017-05-06T00:49:26.210Z,101314
2017-05-06T00:51:55.192Z,101319
2017-05-06T00:54:24.504Z,101316
2017-05-06T00:56:53.481Z,101312
2017-05-06T00:59:22.470Z,101308
2017-05-06T01:01:51.460Z,101310
2017-05-06T01:04:20.414Z,101306
2017-05-06T01:06:50.548Z,101310
2017-05-06T01:09:20.655Z,101298
2017-05-06T01:11:50.664Z,101302
2017-05-06T01:14:20.378Z,101294
2017-05-06T01:16:50.122Z,101292
2017-05-06T01:19:19.217Z,101294
2017-05-06T01:21:48.181Z,101294
2017-05-06T01:24:17.474Z,101293
2017-05-06T01:26:47.191Z,101297
2017-05-06T01:29:16.191Z,101289
2017-05-06T01:31:45.209Z,101279
2017-05-06T01:34:14.179Z,101277
2017-05-06T01:36:43.483Z,101281
2017-05-06T01:39:12.472Z,101276
2017-05-06T01:41:41.484Z,101274
2017-05-06T01:44:10.460Z,101278
2017-05-06T01:46:39.493Z,101272
2017-05-06T01:49:08.831Z,101259
2017-05-06T01:51:38.543Z,101256
2017-05-06T01:54:07.530Z,101253
2017-05-06T01:56:37.246Z,101258
2017-05-06T01:59:06.227Z,101260
2017-05-06T02:01:36.249Z,101248
2017-05-06T02:04:04.474Z,101244
2017-05-06T02:06:33.446Z,101242
2017-05-06T02:09:02.459Z,101234
2017-05-06T02:11:31.429Z,101236
2017-05-06T02:14:00.754Z,101231
2017-05-06T02:16:29.708Z,101230
2017-05-06T02:18:58.715Z,101232
2017-05-06T02:21:27.699Z,101224
2017-05-06T02:23:56.682Z,101225
2017-05-06T02:26:25.966Z,101226
2017-05-06T02:28:55.694Z,101224
2017-05-06T02:31:24.671Z,101226
2017-05-06T02:33:53.666Z,101221
2017-05-06T02:36:22.632Z,101214
2017-05-06T02:38:52.657Z,101215
2017-05-06T02:41:22.357Z,101206
2017-05-06T02:43:52.102Z,101212
2017-05-06T02:46:21.086Z,101204
2017-05-06T02:48:50.053Z,101197
2017-05-06T02:51:20.066Z,101203
2017-05-06T02:53:49.787Z,101212
2017-05-06T02:56:19.930Z,101209
2017-05-06T02:58:48.897Z,101213
2017-05-06T03:01:18.631Z,101217
2017-05-06T03:03:47.696Z,101214
2017-05-06T03:06:17.422Z,101212
2017-05-06T03:08:46.713Z,101215
2017-05-06T03:11:15.681Z,101209
2017-05-06T03:13:44.648Z,101210
2017-05-06T03:16:13.629Z,101214
2017-05-06T03:18:42.613Z,101203
2017-05-06T03:21:12.014Z,101202
2017-05-06T03:23:40.984Z,101205
2017-05-06T03:26:10.740Z,101213
2017-05-06T03:28:39.815Z,101209
2017-05-06T03:31:08.846Z,101197
2017-05-06T03:33:38.167Z,101202
2017-05-06T03:36:07.868Z,101198
2017-05-06T03:38:38.026Z,101196
2017-05-06T03:41:06.988Z,101196
2017-05-06T03:43:36.710Z,101183
2017-05-06T03:46:05.695Z,101181
2017-05-06T03:48:34.656Z,101190
2017-05-06T03:51:04.173Z,101186
2017-05-06T03:53:33.876Z,101187
2017-05-06T03:56:03.929Z,101195
2017-05-06T03:58:32.926Z,101206
2017-05-06T04:01:01.913Z,101201
2017-05-06T04:03:30.908Z,101192
2017-05-06T04:05:59.918Z,101182
2017-05-06T04:08:29.236Z,101168
2017-05-06T04:10:58.179Z,101169
2017-05-06T04:13:27.143Z,101178
2017-05-06T04:15:56.870Z,101186
2017-05-06T04:18:26.549Z,101185
2017-05-06T04:20:55.855Z,101177
2017-05-06T04:23:24.810Z,101184
2017-05-06T04:25:53.763Z,101183
2017-05-06T04:28:22.713Z,101186
2017-05-06T04:30:51.699Z,101182
2017-05-06T04:33:21.028Z,101181
2017-05-06T04:35:50.714Z,101179
2017-05-06T04:38:19.655Z,101185
2017-05-06T04:40:48.608Z,101175
2017-05-06T04:43:17.546Z,101173
2017-05-06T04:45:46.781Z,101165
2017-05-06T04:48:15.709Z,101166
2017-05-06T04:50:45.389Z,101172
2017-05-06T04:53:14.479Z,101177
2017-05-06T04:55:43.478Z,101177
2017-05-06T04:58:12.797Z,101172
2017-05-06T05:00:42.503Z,101175
2017-05-06T05:03:12.416Z,101175
2017-05-06T05:05:42.117Z,101164
2017-05-06T05:08:11.812Z,101165
2017-05-06T05:10:41.073Z,101164
2017-05-06T05:13:10.029Z,101170
2017-05-06T05:15:38.992Z,101176
2017-05-06T05:18:08.007Z,101180
2017-05-06T05:20:36.947Z,101165
2017-05-06T05:23:06.207Z,101174
2017-05-06T05:25:35.894Z,101171
2017-05-06T05:28:04.922Z,101174
2017-05-06T05:30:33.882Z,101171
2017-05-06T05:33:02.827Z,101168
2017-05-06T05:35:32.172Z,101166
2017-05-06T05:38:01.121Z,101166
2017-05-06T05:40:30.058Z,101169
2017-05-06T05:42:59.941Z,101170
2017-05-06T05:45:28.915Z,101168
2017-05-06T05:47:58.159Z,101174
2017-05-06T05:50:27.858Z,101166
2017-05-06T05:52:56.817Z,101178
2017-05-06T05:55:25.838Z,101168
2017-05-06T05:57:54.794Z,101174
2017-05-06T06:00:24.083Z,101167
2017-05-06T06:02:53.019Z,101171
2017-05-06T06:05:21.989Z,101177
2017-05-06T06:07:50.963Z,101175
2017-05-06T06:10:19.916Z,101183
2017-05-06T06:12:49.926Z,101187
2017-05-06T06:15:19.622Z,101175
2017-05-06T06:17:48.579Z,101180
2017-05-06T06:20:17.574Z,101176
2017-05-06T06:22:46.559Z,101173
2017-05-06T06:25:15.910Z,101169
2017-05-06T06:27:45.621Z,101167
2017-05-06T06:30:15.660Z,101165
2017-05-06T06:32:44.661Z,101169
2017-05-06T06:35:14.442Z,101166
2017-05-06T06:37:44.162Z,101166
2017-05-06T06:40:13.893Z,101162
2017-05-06T06:42:43.142Z,101165
2017-05-06T06:45:12.086Z,101161
2017-05-06T06:47:41.060Z,101160
2017-05-06T06:50:10.041Z,101154
2017-05-06T06:52:39.764Z,101153
2017-05-06T06:55:09.030Z,101150
2017-05-06T06:57:37.983Z,101151
2017-05-06T07:00:06.941Z,101146
2017-05-06T07:02:35.986Z,101134
2017-05-06T07:05:04.938Z,101138
2017-05-06T07:07:34.393Z,101140
2017-05-06T07:10:03.384Z,101144
2017-05-06T07:12:32.326Z,101138
2017-05-06T07:15:01.289Z,101139
2017-05-06T07:17:30.964Z,101146
2017-05-06T07:20:00.266Z,101135
2017-05-06T07:22:29.227Z,101129
2017-05-06T07:24:59.409Z,101128
2017-05-06T07:27:28.438Z,101128
2017-05-06T07:29:57.384Z,101121
2017-05-06T07:32:27.394Z,101118
2017-05-06T07:34:56.363Z,101113
2017-05-06T07:37:26.503Z,101114
2017-05-06T07:39:55.479Z,101116
2017-05-06T07:42:24.454Z,101116
2017-05-06T07:44:53.773Z,101118
2017-05-06T07:47:22.767Z,101122
2017-05-06T07:49:51.709Z,101107
2017-05-06T07:52:20.691Z,101114
2017-05-06T07:54:49.698Z,101112
2017-05-06T07:57:19.917Z,101110
2017-05-06T07:59:48.916Z,101095
2017-05-06T08:02:17.957Z,101093
2017-05-06T08:04:46.919Z,101096
2017-05-06T08:07:15.864Z,101089
2017-05-06T08:09:45.345Z,101078
2017-05-06T08:12:14.305Z,101088
2017-05-06T08:14:43.270Z,101086
2017-05-06T08:17:12.238Z,101089
2017-05-06T08:19:41.203Z,101091
2017-05-06T08:22:10.604Z,101087
2017-05-06T08:24:39.564Z,101079
2017-05-06T08:27:08.565Z,101079
2017-05-06T08:29:37.564Z,101086
2017-05-06T08:32:06.587Z,101080
2017-05-06T08:34:36.583Z,101089
2017-05-06T08:37:05.568Z,101078
2017-05-06T08:39:34.550Z,101083
2017-05-06T08:42:03.526Z,101085
2017-05-06T08:44:32.474Z,101091
2017-05-06T08:47:02.486Z,101089
2017-05-06T08:49:31.454Z,101086
2017-05-06T08:52:01.467Z,101089
2017-05-06T08:54:30.544Z,101089
2017-05-06T08:56:59.523Z,101088
2017-05-06T08:59:28.894Z,101094
2017-05-06T09:01:57.877Z,101091
2017-05-06T09:04:27.633Z,101087
2017-05-06T09:06:56.632Z,101084
2017-05-06T09:09:25.622Z,101081
2017-05-06T09:11:54.970Z,101084
2017-05-06T09:14:23.938Z,101081
2017-05-06T09:16:52.912Z,101076
2017-05-06T09:19:21.898Z,101085
2017-05-06T09:21:50.841Z,101079
2017-05-06T09:24:20.942Z,101082
2017-05-06T09:26:50.630Z,101079
2017-05-06T09:29:19.607Z,101072
2017-05-06T09:31:48.597Z,101073
2017-05-06T09:34:17.568Z,101074
2017-05-06T09:36:46.990Z,101074
2017-05-06T09:39:16.056Z,101075
2017-05-06T09:41:45.059Z,101069
2017-05-06T09:44:14.023Z,101064
2017-05-06T09:46:43.016Z,101064
2017-05-06T09:49:11.980Z,101053
2017-05-06T09:51:41.883Z,101055
2017-05-06T09:54:11.233Z,101056
2017-05-06T09:56:40.219Z,101055
2017-05-06T09:59:09.186Z,101048
2017-05-06T10:01:38.175Z,101051
2017-05-06T10:04:07.908Z,101057
2017-05-06T10:06:37.200Z,101050
2017-05-06T10:09:06.170Z,101043
2017-05-06T10:11:35.165Z,101039
2017-05-06T10:14:04.147Z,101033
2017-05-06T10:16:33.099Z,101028
2017-05-06T10:19:02.506Z,101031
2017-05-06T10:21:31.510Z,101022
2017-05-06T10:24:00.485Z,101029
2017-05-06T10:26:29.450Z,101033
2017-05-06T10:28:58.419Z,101029
2017-05-06T10:31:28.436Z,101022
2017-05-06T10:33:58.148Z,101024
2017-05-06T10:36:27.996Z,101012
2017-05-06T10:38:57.120Z,101014
2017-05-06T10:41:26.057Z,101013
2017-05-06T10:43:55.324Z,101003
2017-05-06T10:46:24.281Z,101002
2017-05-06T10:48:53.243Z,100995
2017-05-06T10:51:22.279Z,100987
2017-05-06T10:53:51.269Z,100988
2017-05-06T10:56:20.562Z,100981
2017-05-06T10:58:49.522Z,100981
2017-05-06T11:01:18.550Z,100976
2017-05-06T11:03:47.553Z,100975
2017-05-06T11:06:16.513Z,100979
2017-05-06T11:08:45.771Z,100983
2017-05-06T11:11:15.549Z,100966
2017-05-06T11:13:44.531Z,100965
2017-05-06T11:16:13.494Z,100962
2017-05-06T11:18:42.441Z,100953
2017-05-06T11:21:11.676Z,100957
2017-05-06T11:23:40.662Z,100962
2017-05-06T11:26:09.672Z,100958
2017-05-06T11:28:38.665Z,100955
2017-05-06T11:31:07.610Z,100960
2017-05-06T11:33:37.674Z,100947
2017-05-06T11:36:06.662Z,100947
2017-05-06T11:38:35.606Z,100948
2017-05-06T11:41:04.616Z,100943
2017-05-06T11:43:33.799Z,100937
2017-05-06T11:46:03.347Z,100939
2017-05-06T11:48:32.307Z,100937
2017-05-06T11:51:04.587Z,100928
2017-05-06T11:53:34.324Z,100929
2017-05-06T11:56:03.277Z,100918
2017-05-06T11:58:32.976Z,100920
2017-05-06T12:01:01.956Z,100918
2017-05-06T12:03:31.311Z,100910
2017-05-06T12:06:00.283Z,100910
2017-05-06T12:08:30.145Z,100904
2017-05-06T12:10:59.100Z,100910
2017-05-06T12:13:28.083Z,100893
2017-05-06T12:15:57.351Z,100889
2017-05-06T12:18:26.378Z,100875
2017-05-06T12:20:55.362Z,100883
2017-05-06T12:23:25.135Z,100883
2017-05-06T12:25:54.192Z,100874
2017-05-06T12:28:23.610Z,100871
2017-05-06T12:30:52.598Z,100878
2017-05-06T12:33:22.420Z,100872
2017-05-06T12:35:51.428Z,100867
2017-05-06T12:38:20.373Z,100861
2017-05-06T12:40:49.742Z,100855
2017-05-06T12:43:19.655Z,100857
2017-05-06T12:45:49.676Z,100856
2017-05-06T12:48:19.571Z,100853
2017-05-06T12:50:48.519Z,100855
2017-05-06T12:53:17.635Z,100845
2017-05-06T12:55:46.683Z,100836
2017-05-06T12:58:15.983Z,100828
2017-05-06T13:00:45.004Z,100832
2017-05-06T13:03:13.978Z,100833
2017-05-06T13:05:42.966Z,100820
2017-05-06T13:08:11.935Z,100826
2017-05-06T13:10:42.046Z,100826
2017-05-06T13:13:11.000Z,100823
2017-05-06T13:15:40.034Z,100829
2017-05-06T13:18:09.733Z,100824
2017-05-06T13:20:38.730Z,100823
2017-05-06T13:23:08.144Z,100820
2017-05-06T13:25:37.849Z,100819
2017-05-06T13:28:07.895Z,100814
2017-05-06T13:30:36.949Z,100818
2017-05-06T13:33:05.932Z,100810
2017-05-06T13:35:34.905Z,100814
2017-05-06T13:38:03.899Z,100814
2017-05-06T13:40:33.159Z,100810
2017-05-06T13:43:02.133Z,100805
2017-05-06T13:45:31.088Z,100801
2017-05-06T13:48:00.070Z,100798
2017-05-06T13:50:29.012Z,100796
2017-05-06T13:52:59.066Z,100788
2017-05-06T13:55:28.082Z,100784
2017-05-06T13:57:57.090Z,100780
2017-05-06T14:00:26.157Z,100785
2017-05-06T14:02:55.136Z,100771
2017-05-06T14:05:24.531Z,100775
2017-05-06T14:07:53.521Z,100770
2017-05-06T14:10:22.534Z,100771
2017-05-06T14:12:51.563Z,100758
2017-05-06T14:15:21.346Z,100753
2017-05-06T14:17:50.671Z,100751
2017-05-06T14:20:20.398Z,100737
2017-05-06T14:22:49.335Z,100745
2017-05-06T14:25:18.322Z,100744
2017-05-06T14:27:47.390Z,100731
2017-05-06T14:30:16.792Z,100739
2017-05-06T14:32:45.844Z,100734
2017-05-06T14:35:14.811Z,100731
2017-05-06T14:37:43.841Z,100726
2017-05-06T14:40:13.558Z,100723
2017-05-06T14:42:43.683Z,100723
2017-05-06T14:45:12.705Z,100708
2017-05-06T14:47:41.654Z,100707
2017-05-06T14:50:11.375Z,100693
2017-05-06T14:52:40.416Z,100703
2017-05-06T14:55:09.759Z,100698
2017-05-06T14:57:39.437Z,100706
2017-05-06T15:00:08.443Z,100699
2017-05-06T15:02:37.453Z,100703
2017-05-06T15:05:07.176Z,100698
2017-05-06T15:07:36.444Z,100696
2017-05-06T15:10:06.139Z,100695
2017-05-06T15:12:35.087Z,100698
2017-05-06T15:15:04.065Z,100692
2017-05-06T15:17:33.051Z,100704
2017-05-06T15:20:02.311Z,100707
2017-05-06T15:22:31.279Z,100703
2017-05-06T15:25:00.258Z,100696
2017-05-06T15:27:29.273Z,100690
2017-05-06T15:29:58.266Z,100701
2017-05-06T15:32:27.632Z,100694
2017-05-06T15:34:56.586Z,100686
2017-05-06T15:37:25.540Z,100689
2017-05-06T15:39:54.533Z,100684
2017-05-06T15:42:23.599Z,100677
2017-05-06T15:44:52.957Z,100674
2017-05-06T15:47:21.956Z,100670
2017-05-06T15:49:50.918Z,100677
2017-05-06T15:52:19.952Z,100670
2017-05-06T15:54:49.725Z,100672
2017-05-06T15:57:19.179Z,100672
2017-05-06T15:59:48.158Z,100676
2017-05-06T16:02:17.950Z,100675
2017-05-06T16:04:46.947Z,100672
2017-05-06T16:07:15.950Z,100676
2017-05-06T16:09:46.029Z,100669
2017-05-06T16:12:14.976Z,100674
2017-05-06T16:14:44.075Z,100668
2017-05-06T16:17:13.076Z,100672
2017-05-06T16:19:42.039Z,100671
2017-05-06T16:22:12.095Z,100665
2017-05-06T16:24:41.055Z,100660
2017-05-06T16:27:10.040Z,100664
2017-05-06T16:29:39.451Z,100647
2017-05-06T16:32:09.285Z,100655
2017-05-06T16:34:38.255Z,100654
2017-05-06T16:37:07.547Z,100655
2017-05-06T16:39:37.256Z,100654
2017-05-06T16:42:06.966Z,100647
2017-05-06T16:44:36.960Z,100651
2017-05-06T16:47:05.933Z,100656
2017-05-06T16:49:34.886Z,100648
2017-05-06T16:52:04.169Z,100654
2017-05-06T16:54:33.158Z,100658
2017-05-06T16:57:02.116Z,100655
2017-05-06T16:59:31.381Z,100661
2017-05-06T17:02:00.351Z,100658
2017-05-06T17:04:29.443Z,100655
2017-05-06T17:06:58.715Z,100655
2017-05-06T17:09:28.443Z,100652
2017-05-06T17:11:58.208Z,100658
2017-05-06T17:14:27.544Z,100651
2017-05-06T17:16:57.290Z,100653
2017-05-06T17:19:26.297Z,100643
2017-05-06T17:21:55.567Z,100648
2017-05-06T17:24:24.534Z,100641
2017-05-06T17:26:54.311Z,100647
2017-05-06T17:29:23.608Z,100641
2017-05-06T17:31:52.555Z,100640
2017-05-06T17:34:21.533Z,100638
2017-05-06T17:36:51.641Z,100639
2017-05-06T17:39:20.596Z,100638
2017-05-06T17:41:49.574Z,100644
2017-05-06T17:44:18.928Z,100637
2017-05-06T17:46:48.656Z,100642
2017-05-06T17:49:17.691Z,100640
2017-05-06T17:51:46.936Z,100639
2017-05-06T17:54:15.912Z,100639
2017-05-06T17:56:45.004Z,100633
2017-05-06T17:59:14.929Z,100633
2017-05-06T18:01:43.891Z,100634
2017-05-06T18:04:12.924Z,100631
2017-05-06T18:06:42.926Z,100632
2017-05-06T18:09:12.695Z,100634
2017-05-06T18:11:41.979Z,100628
2017-05-06T18:14:11.250Z,100632
2017-05-06T18:16:40.264Z,100640
2017-05-06T18:19:09.351Z,100640
2017-05-06T18:21:38.713Z,100641
2017-05-06T18:24:07.693Z,100639
2017-05-06T18:26:36.679Z,100643
2017-05-06T18:29:06.019Z,100637
2017-05-06T18:31:35.011Z,100642
2017-05-06T18:34:04.717Z,100649
2017-05-06T18:36:34.819Z,100652
2017-05-06T18:39:03.756Z,100644
2017-05-06T18:41:32.750Z,100651
2017-05-06T18:44:02.007Z,100651
2017-05-06T18:46:31.707Z,100654
2017-05-06T18:49:00.690Z,100637
2017-05-06T18:51:30.032Z,100637
2017-05-06T18:53:58.990Z,100640
2017-05-06T18:56:27.950Z,100644
2017-05-06T18:58:57.314Z,100654
2017-05-06T19:01:26.293Z,100652
2017-05-06T19:03:56.102Z,100658
2017-05-06T19:06:26.195Z,100659
2017-05-06T19:08:55.236Z,100656
2017-05-06T19:11:24.180Z,100662
2017-05-06T19:13:53.490Z,100661
2017-05-06T19:16:23.371Z,100652
2017-05-06T19:18:52.541Z,100670
2017-05-06T19:21:21.853Z,100668
2017-05-06T19:23:50.853Z,100668
2017-05-06T19:26:19.835Z,100667
2017-05-06T19:28:49.196Z,100660
2017-05-06T19:31:18.250Z,100660
2017-05-06T19:33:47.244Z,100660
2017-05-06T19:36:16.521Z,100666
2017-05-06T19:38:45.590Z,100657
2017-05-06T19:41:14.583Z,100663
2017-05-06T19:43:43.852Z,100655
2017-05-06T19:46:13.594Z,100661
2017-05-06T19:48:42.598Z,100659
2017-05-06T19:51:11.878Z,100659
2017-05-06T19:53:40.878Z,100668
2017-05-06T19:56:09.854Z,100666
2017-05-06T19:58:39.139Z,100670
2017-05-06T20:01:08.851Z,100672
2017-05-06T20:03:38.960Z,100658
2017-05-06T20:06:08.003Z,100666
2017-05-06T20:08:36.982Z,100667
2017-05-06T20:11:06.366Z,100672
2017-05-06T20:13:35.328Z,100667
2017-05-06T20:16:07.399Z,100676
2017-05-06T20:18:36.499Z,100674
2017-05-06T20:21:05.530Z,100674
2017-05-06T20:23:40.856Z,100673
2017-05-06T20:26:09.816Z,100680
2017-05-06T20:28:47.729Z,100678
2017-05-06T20:31:17.368Z,100676
2017-05-06T20:33:49.107Z,100674
2017-05-06T20:36:18.381Z,100669
2017-05-06T20:38:50.344Z,100672
2017-05-06T20:41:20.359Z,100689
2017-05-06T20:43:55.041Z,100676
2017-05-06T20:46:24.256Z,100672
2017-05-06T20:48:59.126Z,100669
2017-05-06T20:51:28.836Z,100665
2017-05-06T20:53:58.845Z,100671
2017-05-06T20:56:28.533Z,100671
2017-05-06T20:59:04.576Z,100670
2017-05-06T21:01:33.584Z,100670
2017-05-06T21:04:08.416Z,100681
2017-05-06T21:06:37.445Z,100674
2017-05-06T21:09:11.610Z,100673
2017-05-06T21:11:40.635Z,100668
2017-05-06T21:14:19.373Z,100664
2017-05-06T21:16:48.317Z,100658
2017-05-06T21:19:17.354Z,100662
2017-05-06T21:21:46.624Z,100655
2017-05-06T21:24:16.351Z,100658
2017-05-06T21:26:46.078Z,100650
2017-05-06T21:29:16.178Z,100651
2017-05-06T21:31:45.942Z,100657
2017-05-06T21:34:14.894Z,100651
2017-05-06T21:36:44.189Z,100649
2017-05-06T21:39:13.155Z,100652
2017-05-06T21:41:42.889Z,100647
2017-05-06T21:44:12.195Z,100645
2017-05-06T21:46:41.963Z,100637
2017-05-06T21:49:11.020Z,100634
2017-05-06T21:51:40.278Z,100639
2017-05-06T21:54:10.036Z,100634
2017-05-06T21:56:39.008Z,100636
2017-05-06T21:59:08.275Z,100638
2017-05-06T22:01:37.981Z,100624
2017-05-06T22:04:08.000Z,100642
2017-05-06T22:06:37.724Z,100640
2017-05-06T22:09:06.707Z,100632
2017-05-06T22:11:36.717Z,100642
2017-05-06T22:14:06.443Z,100638
2017-05-06T22:16:35.482Z,100633
2017-05-06T22:19:04.881Z,100643
2017-05-06T22:21:33.818Z,100633
2017-05-06T22:24:03.553Z,100630
2017-05-06T22:26:32.872Z,100632
2017-05-06T22:29:02.086Z,100625
2017-05-06T22:31:31.040Z,100634
2017-05-06T22:34:00.402Z,100637
2017-05-06T22:36:29.342Z,100637
2017-05-06T22:38:58.318Z,100637
2017-05-06T22:41:27.628Z,100634
2017-05-06T22:43:56.691Z,100644
2017-05-06T22:46:26.440Z,100648
2017-05-06T22:48:55.849Z,100650
2017-05-06T22:51:24.791Z,100655
2017-05-06T22:53:54.661Z,100650
2017-05-06T22:56:23.978Z,100652
2017-05-06T22:58:52.922Z,100648
2017-05-06T23:01:21.940Z,100640
2017-05-06T23:03:51.237Z,100649
2017-05-06T23:06:20.205Z,100645
2017-05-06T23:08:49.147Z,100647
2017-05-06T23:11:18.463Z,100646
2017-05-06T23:13:48.174Z,100649
2017-05-06T23:16:17.867Z,100657
2017-05-06T23:18:47.406Z,100663
2017-05-06T23:21:16.359Z,100656
2017-05-06T23:23:45.294Z,100660
2017-05-06T23:26:15.316Z,100670
2017-05-06T23:28:44.341Z,100668
2017-05-06T23:31:13.327Z,100674
2017-05-06T23:33:42.574Z,100670
2017-05-06T23:36:12.258Z,100669
2017-05-06T23:38:41.226Z,100682
2017-05-06T23:41:10.619Z,100679
2017-05-06T23:43:39.620Z,100672
2017-05-06T23:46:08.564Z,100676
2017-05-06T23:48:37.827Z,100663
2017-05-06T23:51:06.782Z,100665
2017-05-06T23:53:35.779Z,100665
2017-05-06T23:56:05.010Z,100662
2017-05-06T23:58:33.974Z,100658
